Time;durP1;ratioP1;P1;durP2;ratioP2;P2;SDS_P1;SDS_P2;PMS_P1;PMS_P2;Temp;Humidity;BMP_temperature;BMP_pressure;BME280_temperature;BME280_humidity;BME280_pressure;Samples;Min_cycle;Max_cycle;Signal;HPM_P1;HPM_P2
2022/03/16 09:03:27;;;;;;;85.78;38.63;;;8.00;99.90;;;;;;6175849;22;2301033;-90
2022/03/16 09:05:53;;;;;;;73.90;34.90;;;8.30;99.90;;;;;;6288247;22;20094;-90
2022/03/16 09:08:19;;;;;;;62.55;28.20;;;8.30;99.90;;;;;;6290337;22;20007;-90
2022/03/16 09:10:47;;;;;;;77.30;34.40;;;8.30;99.90;;;;;;6290417;22;20537;-90
2022/03/16 09:13:15;;;;;;;81.93;32.97;;;8.40;99.90;;;;;;6290823;22;19999;-90
2022/03/16 09:15:42;;;;;;;85.22;36.67;;;8.40;99.90;;;;;;6290507;22;20014;-89
2022/03/16 09:18:09;;;;;;;82.93;35.53;;;8.50;99.90;;;;;;6290644;22;20007;-90
2022/03/16 09:20:35;;;;;;;73.85;32.80;;;8.50;99.90;;;;;;6290443;22;20003;-89
2022/03/16 09:23:01;;;;;;;84.45;35.38;;;8.50;99.90;;;;;;6290824;22;20082;-91
2022/03/16 09:25:27;;;;;;;96.22;39.08;;;8.50;99.90;;;;;;6291369;22;20057;-90
2022/03/16 09:27:53;;;;;;;77.05;35.28;;;8.50;99.90;;;;;;6290931;22;19999;-92
2022/03/16 09:30:21;;;;;;;86.78;35.33;;;8.50;99.90;;;;;;6290284;22;20010;-90
2022/03/16 09:32:46;;;;;;;80.30;37.78;;;8.50;99.90;;;;;;6291128;22;20007;-90
2022/03/16 09:35:12;;;;;;;85.75;36.63;;;8.60;99.90;;;;;;6290826;22;20003;-89
2022/03/16 09:37:40;;;;;;;94.18;37.05;;;8.60;99.90;;;;;;6290976;22;20003;-90
2022/03/16 09:40:06;;;;;;;91.43;38.22;;;8.50;99.90;;;;;;6290602;22;19999;-91
2022/03/16 09:42:32;;;;;;;90.65;38.22;;;8.50;99.90;;;;;;6290076;22;20019;-90
2022/03/16 09:45:02;;;;;;;98.60;40.72;;;8.50;99.90;;;;;;6291577;22;19999;-90
2022/03/16 09:47:30;;;;;;;99.73;41.43;;;8.50;99.90;;;;;;6292957;22;20011;-90
2022/03/16 09:49:56;;;;;;;106.65;42.97;;;8.50;99.90;;;;;;6293162;22;20003;-90
2022/03/16 09:52:26;;;;;;;111.70;45.13;;;8.50;99.90;;;;;;6295455;22;20009;-90
2022/03/16 09:54:53;;;;;;;120.38;44.45;;;8.50;99.90;;;;;;6308447;22;20038;-90
2022/03/16 09:57:20;;;;;;;110.60;42.90;;;8.50;99.90;;;;;;6309305;22;20003;-91
2022/03/16 09:59:46;;;;;;;117.97;42.97;;;8.40;99.90;;;;;;6307111;22;20007;-90
2022/03/16 10:02:16;;;;;;;95.97;40.60;;;8.40;99.90;;;;;;6306054;22;20039;-91
2022/03/16 10:04:44;;;;;;;105.78;42.80;;;8.40;99.90;;;;;;6294446;22;20007;-91
2022/03/16 10:07:10;;;;;;;102.80;43.72;;;8.50;99.90;;;;;;6294539;22;20035;-90
2022/03/16 10:15:12;;;;;;;101.22;42.90;;;8.50;99.90;;;;;;6333231;22;20014;-91
2022/03/16 10:17:45;;;;;;;;;;;8.50;99.90;;;;;;6308025;22;20027;-91
2022/03/16 10:20:35;;;;;;;90.45;39.13;;;8.60;99.90;;;;;;6292932;22;19899;-90
2022/03/16 10:23:20;;;;;;;88.38;36.88;;;8.50;99.90;;;;;;6287141;22;20098;-91
2022/03/16 10:25:52;;;;;;;85.78;38.47;;;8.60;99.90;;;;;;6285864;22;20003;-90
2022/03/16 10:28:20;;;;;;;80.28;34.95;;;8.60;99.90;;;;;;6285185;22;20004;-91
2022/03/16 10:30:54;;;;;;;79.97;36.78;;;8.60;99.90;;;;;;6285600;22;20007;-90
2022/03/16 10:33:20;;;;;;;71.72;34.03;;;8.70;99.90;;;;;;6284799;22;20495;-91
2022/03/16 10:36:06;;;;;;;70.68;33.67;;;8.70;99.90;;;;;;6284259;22;19999;-90
2022/03/16 10:38:56;;;;;;;62.92;32.45;;;8.70;99.90;;;;;;6283253;22;20078;-89
2022/03/16 10:47:09;;;;;;;74.50;33.97;;;9.00;99.90;;;;;;6306559;22;20089;-90
2022/03/16 10:49:35;;;;;;;73.75;34.70;;;9.20;99.90;;;;;;6279814;22;20003;-90
2022/03/16 10:52:12;;;;;;;63.60;32.92;;;9.40;99.90;;;;;;6280050;22;20003;-91
2022/03/16 10:54:39;;;;;;;60.15;29.52;;;9.60;99.90;;;;;;6280765;22;20010;-91
2022/03/16 10:57:10;;;;;;;63.58;29.23;;;9.80;99.90;;;;;;6281572;22;20007;-91
2022/03/16 10:59:37;;;;;;;65.60;31.02;;;10.00;99.90;;;;;;6281698;22;19999;-91
2022/03/16 11:02:04;;;;;;;56.65;28.65;;;10.10;99.90;;;;;;6282897;22;20232;-90
2022/03/16 11:04:35;;;;;;;54.15;26.98;;;10.30;99.90;;;;;;6282693;22;19999;-92
2022/03/16 11:07:03;;;;;;;58.70;27.73;;;10.40;99.90;;;;;;6282783;22;20047;-91
2022/03/16 11:09:32;;;;;;;53.25;27.45;;;10.60;99.90;;;;;;6282513;22;20331;-90
2022/03/16 11:14:47;;;;;;;61.38;29.58;;;10.90;99.90;;;;;;6308780;22;20011;-90
2022/03/16 11:17:13;;;;;;;59.92;28.48;;;11.00;99.90;;;;;;6282923;22;20335;-91
2022/03/16 11:19:44;;;;;;;52.00;28.27;;;11.00;99.90;;;;;;6282165;22;20074;-90
2022/03/16 11:22:15;;;;;;;53.65;27.10;;;11.00;99.90;;;;;;6281575;22;20088;-90
2022/03/16 11:24:47;;;;;;;;;;;11.00;99.90;;;;;;6283030;22;20035;-89
2022/03/16 11:27:40;;;;;;;54.80;27.08;;;11.00;99.90;;;;;;6282536;22;19899;-90
2022/03/16 11:30:33;;;;;;;58.45;28.20;;;11.00;99.90;;;;;;6282457;22;20034;-90
2022/03/16 11:33:11;;;;;;;52.20;24.85;;;11.00;99.90;;;;;;6279327;22;20022;-90
2022/03/16 11:35:44;;;;;;;52.00;27.15;;;11.00;99.90;;;;;;6282574;22;20434;-90
2022/03/16 11:38:15;;;;;;;51.10;26.40;;;11.00;99.90;;;;;;6282430;22;20052;-90
2022/03/16 11:40:46;;;;;;;45.42;24.83;;;11.00;99.90;;;;;;6282671;22;20430;-90
2022/03/16 11:43:44;;;;;;;51.42;25.27;;;11.00;99.90;;;;;;6278713;22;20015;-90
2022/03/16 11:46:28;;;;;;;53.90;26.40;;;10.90;99.90;;;;;;6272274;22;20007;-90
2022/03/16 11:49:00;;;;;;;52.63;26.80;;;10.90;99.90;;;;;;6282592;22;20007;-91
2022/03/16 11:51:26;;;;;;;47.30;24.77;;;10.90;99.90;;;;;;6281982;22;20011;-90
2022/03/16 11:56:39;;;;;;;57.60;25.63;;;11.00;99.90;;;;;;6310118;22;20395;-90
2022/03/16 11:59:16;;;;;;;49.28;25.95;;;11.00;99.90;;;;;;6284439;22;20434;-90
2022/03/16 12:01:52;;;;;;;49.03;24.77;;;11.00;99.90;;;;;;6281435;22;20023;-90
2022/03/16 12:04:35;;;;;;;47.70;25.27;;;11.00;99.90;;;;;;6281519;22;20011;-90
2022/03/16 12:07:09;;;;;;;50.75;26.10;;;11.00;99.90;;;;;;6281013;22;19999;-90
2022/03/16 12:09:47;;;;;;;46.00;24.23;;;11.00;99.90;;;;;;6280104;22;20010;-90
2022/03/16 12:15:29;;;;;;;50.10;25.02;;;11.00;99.90;;;;;;6308332;22;20400;-90
2022/03/16 12:17:57;;;;;;;52.25;24.35;;;11.00;99.90;;;;;;6281469;22;20011;-90
2022/03/16 12:20:53;;;;;;;50.65;24.05;;;11.00;99.90;;;;;;6280633;22;20007;-89
2022/03/16 12:23:42;;;;;;;44.13;21.67;;;11.10;99.90;;;;;;6257858;22;20390;-89
2022/03/16 12:26:08;;;;;;;39.50;20.65;;;11.10;99.90;;;;;;6280727;22;20038;-89
2022/03/16 12:31:19;;;;;;;41.88;20.15;;;11.00;99.90;;;;;;6307788;22;20034;-90
2022/03/16 12:33:48;;;;;;;43.95;21.73;;;10.90;99.90;;;;;;6280227;22;20008;-89
2022/03/16 12:36:23;;;;;;;42.42;22.02;;;10.90;99.90;;;;;;6279741;22;20430;-90
2022/03/16 12:38:52;;;;;;;41.83;20.30;;;10.90;99.90;;;;;;6280847;22;20003;-89
2022/03/16 12:44:11;;;;;;;42.42;22.10;;;10.90;99.90;;;;;;6307805;22;20026;-90
2022/03/16 12:47:04;;;;;;;35.50;19.38;;;10.90;99.90;;;;;;6280384;22;20031;-89
2022/03/16 12:49:32;;;;;;;44.10;20.23;;;10.80;99.90;;;;;;6280756;22;20015;-90
2022/03/16 12:52:01;;;;;;;38.47;19.67;;;10.80;99.90;;;;;;6280413;22;20000;-90
2022/03/16 12:54:29;;;;;;;40.85;20.48;;;10.80;99.90;;;;;;6279889;22;20035;-90
2022/03/16 12:57:02;;;;;;;38.60;20.48;;;10.90;99.90;;;;;;6280625;22;19999;-92
2022/03/16 12:59:31;;;;;;;40.80;20.27;;;10.90;99.90;;;;;;6281557;22;20077;-90
2022/03/16 13:01:58;;;;;;;46.53;20.98;;;10.90;99.90;;;;;;6281792;22;20026;-89
2022/03/16 13:04:25;;;;;;;38.03;19.13;;;10.90;99.90;;;;;;6282252;22;20004;-89
2022/03/16 13:06:52;;;;;;;35.13;18.55;;;10.90;99.90;;;;;;6291402;22;20072;-90
2022/03/16 13:09:18;;;;;;;37.55;18.63;;;10.90;99.90;;;;;;6272280;22;20000;-89
2022/03/16 13:11:46;;;;;;;39.50;19.38;;;10.90;99.90;;;;;;6298697;22;20012;-89
2022/03/16 13:14:16;;;;;;;39.15;18.90;;;10.90;99.90;;;;;;6296286;22;20011;-90
2022/03/16 13:16:45;;;;;;;34.05;17.17;;;10.90;99.90;;;;;;6294104;22;19999;-89
2022/03/16 13:19:25;;;;;;;31.70;17.17;;;10.90;99.90;;;;;;6293528;22;20346;-90
2022/03/16 13:22:02;;;;;;;39.17;21.02;;;10.90;99.90;;;;;;6284513;22;20033;-89
2022/03/16 13:24:30;;;;;;;44.08;22.77;;;10.90;99.90;;;;;;6282131;22;20027;-89
2022/03/16 13:26:56;;;;;;;38.20;21.05;;;10.90;99.90;;;;;;6283931;22;20014;-89
2022/03/16 13:29:23;;;;;;;42.33;22.60;;;10.90;99.90;;;;;;6284614;22;20003;-89
2022/03/16 13:31:56;;;;;;;40.28;20.95;;;10.90;99.90;;;;;;6281243;22;20035;-89
2022/03/16 13:34:23;;;;;;;48.78;22.38;;;10.80;99.90;;;;;;6281387;22;20003;-90
2022/03/16 13:36:51;;;;;;;47.45;23.35;;;10.80;99.90;;;;;;6281775;22;20167;-90
2022/03/16 13:39:30;;;;;;;44.40;22.23;;;10.80;99.90;;;;;;6282428;22;20027;-89
2022/03/16 13:42:13;;;;;;;49.25;23.02;;;10.80;99.90;;;;;;6282814;22;20020;-90
2022/03/16 13:44:47;;;;;;;51.78;25.00;;;10.80;99.90;;;;;;6309692;22;20052;-89
2022/03/16 13:47:15;;;;;;;45.63;23.77;;;10.80;99.90;;;;;;6281858;22;20003;-89
2022/03/16 13:49:44;;;;;;;47.85;24.55;;;10.70;99.90;;;;;;6281686;22;20060;-89
2022/03/16 13:52:13;;;;;;;49.70;25.42;;;10.70;99.90;;;;;;6282259;22;20060;-89
2022/03/16 13:54:39;;;;;;;47.40;24.48;;;10.70;99.90;;;;;;6282493;22;20023;-90
2022/03/16 13:57:29;;;;;;;51.03;25.30;;;10.70;99.90;;;;;;6290044;22;20057;-89
2022/03/16 13:59:56;;;;;;;47.67;24.80;;;10.60;99.90;;;;;;6287392;22;20003;-89
2022/03/16 14:02:25;;;;;;;42.08;23.83;;;10.60;99.90;;;;;;6288017;22;20041;-90
2022/03/16 14:05:03;;;;;;;48.40;25.00;;;10.50;99.90;;;;;;6292473;22;20001;-90
2022/03/16 14:07:30;;;;;;;49.00;25.88;;;10.50;99.90;;;;;;6304764;22;20007;-92
2022/03/16 14:09:58;;;;;;;48.83;25.58;;;10.40;99.90;;;;;;6307409;22;20004;-92
2022/03/16 14:12:25;;;;;;;56.30;27.48;;;10.40;99.90;;;;;;6300182;22;20065;-90
2022/03/16 14:15:18;;;;;;;50.97;27.13;;;10.30;99.90;;;;;;6292997;22;20033;-90
2022/03/16 14:17:55;;;;;;;54.70;27.17;;;10.30;99.90;;;;;;6286998;22;20043;-91
2022/03/16 14:20:32;;;;;;;45.38;22.20;;;10.20;99.90;;;;;;6286398;22;20080;-92
2022/03/16 14:22:59;;;;;;;48.05;22.45;;;10.20;99.90;;;;;;6284385;22;20021;-92
2022/03/16 14:25:27;;;;;;;49.20;23.98;;;10.10;99.90;;;;;;6284918;22;20010;-93
2022/03/16 14:27:55;;;;;;;46.20;22.17;;;10.10;99.90;;;;;;6284639;22;20003;-92
2022/03/16 14:30:24;;;;;;;35.65;16.92;;;10.00;99.90;;;;;;6284585;22;20081;-91
2022/03/16 14:33:00;;;;;;;36.78;16.13;;;10.00;99.90;;;;;;6285691;22;20010;-90
2022/03/16 14:35:27;;;;;;;32.17;15.63;;;10.00;99.90;;;;;;6302493;22;20003;-90
2022/03/16 14:37:54;;;;;;;37.45;16.92;;;9.90;99.90;;;;;;6304170;22;19987;-90
2022/03/16 14:40:21;;;;;;;41.22;18.08;;;9.90;99.90;;;;;;6290094;22;20090;-91
2022/03/16 14:42:51;;;;;;;40.45;17.35;;;9.90;99.90;;;;;;6283294;22;20011;-90
2022/03/16 14:45:17;;;;;;;41.53;17.15;;;9.80;99.90;;;;;;6282709;22;20017;-90
2022/03/16 14:47:44;;;;;;;30.08;14.75;;;9.80;99.90;;;;;;6283679;22;20011;-91
2022/03/16 14:50:10;;;;;;;32.55;13.95;;;9.70;99.90;;;;;;6283469;22;20011;-92
2022/03/16 14:52:36;;;;;;;29.33;13.65;;;9.70;99.90;;;;;;6283374;22;20296;-91
2022/03/16 14:55:03;;;;;;;32.40;14.05;;;9.60;99.90;;;;;;6283540;22;20003;-90
2022/03/16 14:57:29;;;;;;;30.10;15.10;;;9.60;99.90;;;;;;6291132;22;20007;-90
2022/03/16 14:59:55;;;;;;;34.10;15.85;;;9.50;99.90;;;;;;6284016;22;20025;-90
2022/03/16 15:02:25;;;;;;;30.65;15.25;;;9.50;99.90;;;;;;6292352;22;20015;-90
2022/03/16 15:04:51;;;;;;;36.30;16.33;;;9.50;99.90;;;;;;6283741;22;20034;-89
2022/03/16 15:07:17;;;;;;;33.35;15.68;;;9.40;99.90;;;;;;6282819;22;20082;-92
2022/03/16 15:09:43;;;;;;;26.10;13.98;;;9.40;99.90;;;;;;6283025;22;20052;-92
2022/03/16 15:12:09;;;;;;;28.80;14.43;;;9.40;99.90;;;;;;6281322;22;20091;-91
2022/03/16 15:14:35;;;;;;;18.70;9.65;;;9.30;99.90;;;;;;6309113;22;19999;-91
2022/03/16 15:17:02;;;;;;;23.55;11.75;;;9.30;99.90;;;;;;6281388;22;20185;-92
2022/03/16 15:19:28;;;;;;;20.15;10.40;;;9.30;99.90;;;;;;6281859;22;20026;-92
2022/03/16 15:21:53;;;;;;;26.65;10.90;;;9.20;99.90;;;;;;6307800;22;20019;-91
2022/03/16 15:24:22;;;;;;;22.63;10.88;;;9.20;99.90;;;;;;6282298;22;20014;-92
2022/03/16 15:26:48;;;;;;;25.50;11.13;;;9.10;99.90;;;;;;6281674;22;20464;-92
2022/03/16 15:29:14;;;;;;;25.88;11.73;;;9.10;99.90;;;;;;6281961;22;20027;-90
2022/03/16 15:31:39;;;;;;;21.83;12.10;;;9.10;99.90;;;;;;6281155;22;20014;-91
2022/03/16 15:34:06;;;;;;;30.85;12.45;;;9.10;99.90;;;;;;6281295;22;20093;-90
2022/03/16 15:36:32;;;;;;;26.90;12.63;;;9.00;99.90;;;;;;6280640;22;20007;-90
2022/03/16 15:38:57;;;;;;;24.45;12.32;;;9.00;99.90;;;;;;6280981;22;20007;-90
2022/03/16 15:44:07;;;;;;;22.67;11.93;;;8.90;99.90;;;;;;6308392;22;20083;-91
2022/03/16 15:46:33;;;;;;;28.50;13.90;;;8.90;99.90;;;;;;6280867;22;20330;-91
2022/03/16 15:48:59;;;;;;;35.70;16.08;;;8.90;99.90;;;;;;6280798;22;20003;-91
2022/03/16 15:51:25;;;;;;;31.58;15.90;;;8.90;99.90;;;;;;6281366;22;20426;-92
2022/03/16 15:53:51;;;;;;;31.85;16.00;;;8.90;99.90;;;;;;6281178;22;20004;-91
2022/03/16 15:56:17;;;;;;;31.27;16.23;;;8.90;99.90;;;;;;6281153;22;20014;-90
2022/03/16 15:58:43;;;;;;;27.42;14.57;;;8.90;99.90;;;;;;6280818;22;20007;-90
2022/03/16 16:01:10;;;;;;;30.42;14.32;;;8.80;99.90;;;;;;6280945;22;20514;-90
2022/03/16 16:03:37;;;;;;;23.75;13.82;;;8.80;99.90;;;;;;6281608;22;20343;-92
2022/03/16 16:06:04;;;;;;;26.05;13.77;;;8.80;99.90;;;;;;6281647;22;19996;-91
2022/03/16 16:08:31;;;;;;;23.60;13.43;;;8.80;99.90;;;;;;6281224;22;20011;-91
2022/03/16 16:11:09;;;;;;;22.23;12.77;;;8.80;99.90;;;;;;6281142;22;20285;-91
2022/03/16 16:13:36;;;;;;;24.65;12.18;;;8.80;99.90;;;;;;6281652;22;20014;-91
2022/03/16 16:16:06;;;;;;;26.13;13.65;;;8.80;99.90;;;;;;6281743;22;20030;-90
2022/03/16 16:18:32;;;;;;;20.88;12.30;;;8.80;99.90;;;;;;6288871;22;20003;-90
2022/03/16 16:20:58;;;;;;;23.98;13.25;;;8.70;99.90;;;;;;6302892;22;20021;-89
2022/03/16 16:23:24;;;;;;;26.10;14.02;;;8.70;99.90;;;;;;6299921;22;20007;-90
2022/03/16 16:25:54;;;;;;;19.85;12.93;;;8.70;99.90;;;;;;6300948;22;20000;-91
2022/03/16 16:28:22;;;;;;;17.60;12.32;;;8.60;99.90;;;;;;6292658;22;20027;-90
2022/03/16 16:30:49;;;;;;;16.02;10.23;;;8.60;99.90;;;;;;6290505;22;19999;-91
2022/03/16 16:33:15;;;;;;;19.77;11.57;;;8.50;99.90;;;;;;6291248;22;20034;-90
2022/03/16 16:35:42;;;;;;;11.88;8.48;;;8.50;99.90;;;;;;6287462;22;20009;-90
2022/03/16 16:38:10;;;;;;;11.75;7.13;;;8.50;99.90;;;;;;6283055;22;20030;-91
2022/03/16 16:40:39;;;;;;;10.02;6.47;;;8.40;99.90;;;;;;6280359;22;20006;-90
2022/03/16 16:43:14;;;;;;;9.20;5.35;;;8.30;99.90;;;;;;6280370;22;20289;-90
2022/03/16 16:45:55;;;;;;;3.95;2.80;;;8.30;99.90;;;;;;6280619;22;20010;-90
2022/03/16 16:48:27;;;;;;;4.10;2.42;;;8.20;99.90;;;;;;6280406;22;20007;-91
2022/03/16 16:50:57;;;;;;;1.55;1.15;;;8.10;99.90;;;;;;6280028;22;20007;-90
2022/03/16 16:53:25;;;;;;;1.77;1.13;;;8.00;99.90;;;;;;6280513;22;20061;-91
2022/03/16 16:55:52;;;;;;;1.08;0.98;;;7.90;99.90;;;;;;6307690;22;20066;-90
2022/03/16 16:58:19;;;;;;;1.45;1.10;;;7.80;99.90;;;;;;6280311;22;20346;-90
2022/03/16 17:00:45;;;;;;;2.80;0.98;;;7.70;99.90;;;;;;6279929;22;20003;-91
2022/03/16 17:03:10;;;;;;;1.17;0.98;;;7.60;99.90;;;;;;6279877;22;20473;-90
2022/03/16 17:05:40;;;;;;;3.70;1.08;;;7.60;99.90;;;;;;6280093;22;20003;-90
2022/03/16 17:08:07;;;;;;;4.78;1.50;;;7.50;99.90;;;;;;6280739;22;20089;-90
2022/03/16 17:10:36;;;;;;;2.40;1.02;;;7.40;99.90;;;;;;6279266;22;20000;-91
2022/03/16 17:13:02;;;;;;;3.80;1.30;;;7.30;99.90;;;;;;6281792;22;20007;-90
2022/03/16 17:15:28;;;;;;;1.25;0.80;;;7.30;99.90;;;;;;6282799;22;20003;-91
2022/03/16 17:17:58;;;;;;;1.23;0.60;;;7.10;99.90;;;;;;6282788;22;20014;-90
2022/03/16 17:20:29;;;;;;;0.80;0.55;;;7.10;99.90;;;;;;6281961;22;20042;-91
2022/03/16 17:22:57;;;;;;;1.77;0.82;;;7.00;99.90;;;;;;6280393;22;20433;-91
2022/03/16 17:25:24;;;;;;;3.08;1.13;;;7.00;99.90;;;;;;6278893;22;20065;-90
2022/03/16 17:27:51;;;;;;;0.80;0.75;;;6.90;99.90;;;;;;6281369;22;20300;-89
2022/03/16 17:30:17;;;;;;;0.63;0.45;;;6.90;99.90;;;;;;6282699;22;20080;-89
2022/03/16 17:32:53;;;;;;;1.67;0.80;;;6.80;99.90;;;;;;6282624;22;19995;-89
2022/03/16 17:35:19;;;;;;;1.33;0.82;;;6.80;99.90;;;;;;6282638;22;20456;-90
2022/03/16 17:37:46;;;;;;;1.80;1.00;;;6.80;99.90;;;;;;6282220;22;20007;-90
2022/03/16 17:40:14;;;;;;;1.58;0.90;;;6.80;99.90;;;;;;6281596;22;20003;-90
2022/03/16 17:45:31;;;;;;;3.10;0.98;;;6.80;99.90;;;;;;6310030;22;20105;-89
2022/03/16 17:48:18;;;;;;;1.90;1.02;;;6.80;99.90;;;;;;6281826;22;19999;-91
2022/03/16 17:50:50;;;;;;;1.95;1.58;;;6.70;99.90;;;;;;6284522;22;20055;-90
2022/03/16 17:53:25;;;;;;;4.75;2.72;;;6.60;99.90;;;;;;6288328;22;20054;-90
2022/03/16 17:58:37;;;;;;;3.55;1.77;;;6.60;99.90;;;;;;6316419;22;20382;-92
2022/03/16 18:01:04;;;;;;;2.83;1.83;;;6.60;99.90;;;;;;6285864;22;20031;-90
2022/03/16 18:03:30;;;;;;;1.70;1.60;;;6.60;99.90;;;;;;6284189;22;20136;-90
2022/03/16 18:05:56;;;;;;;3.95;1.88;;;6.60;99.90;;;;;;6282431;22;20003;-90
2022/03/16 18:08:24;;;;;;;1.90;1.30;;;6.60;99.90;;;;;;6286708;22;20011;-90
2022/03/16 18:13:37;;;;;;;3.83;2.05;;;6.60;99.90;;;;;;6319909;22;20331;-89
2022/03/16 18:16:04;;;;;;;1.30;1.20;;;6.60;99.90;;;;;;6286490;22;20007;-90
2022/03/16 18:18:31;;;;;;;1.33;1.23;;;6.50;99.90;;;;;;6281913;22;20027;-91
2022/03/16 18:20:59;;;;;;;2.33;1.30;;;6.50;99.90;;;;;;6281920;22;20018;-90
2022/03/16 18:23:27;;;;;;;2.70;1.55;;;6.50;99.90;;;;;;6281650;22;20021;-90
2022/03/16 18:25:54;;;;;;;2.53;1.08;;;6.40;99.90;;;;;;6281474;22;20465;-90
2022/03/16 18:28:21;;;;;;;2.83;1.35;;;6.40;99.90;;;;;;6282601;22;20007;-90
2022/03/16 18:30:48;;;;;;;3.38;1.70;;;6.40;99.90;;;;;;6282140;22;20011;-91
2022/03/16 18:33:15;;;;;;;3.17;1.10;;;6.40;99.90;;;;;;6282020;22;20011;-90
2022/03/16 18:35:41;;;;;;;5.05;2.03;;;6.30;99.90;;;;;;6282204;22;20007;-91
2022/03/16 18:38:08;;;;;;;3.95;1.42;;;6.30;99.90;;;;;;6310011;22;19999;-90
2022/03/16 18:40:35;;;;;;;3.88;1.75;;;6.30;99.90;;;;;;6281990;22;20030;-89
2022/03/16 18:43:05;;;;;;;4.07;1.70;;;6.30;99.90;;;;;;6281898;22;20019;-90
2022/03/16 18:45:34;;;;;;;5.70;1.73;;;6.30;99.90;;;;;;6256798;22;20015;-90
2022/03/16 18:48:00;;;;;;;2.67;1.60;;;6.30;99.90;;;;;;6281995;22;20068;-90
2022/03/16 18:50:26;;;;;;;2.50;1.65;;;6.30;99.90;;;;;;6282079;22;20091;-90
2022/03/16 18:52:55;;;;;;;3.83;1.92;;;6.30;99.90;;;;;;6282353;22;19999;-91
2022/03/16 18:55:26;;;;;;;2.65;1.50;;;6.30;99.90;;;;;;6282747;22;20069;-89
2022/03/16 18:57:53;;;;;;;2.50;1.63;;;6.30;99.90;;;;;;6282263;22;19999;-91
2022/03/16 19:00:19;;;;;;;4.07;1.80;;;6.20;99.90;;;;;;6282742;22;20007;-90
2022/03/16 19:02:48;;;;;;;2.85;1.85;;;6.20;99.90;;;;;;6310300;22;20011;-91
2022/03/16 19:05:14;;;;;;;3.10;1.55;;;6.20;99.90;;;;;;6310677;22;20015;-92
2022/03/16 19:07:39;;;;;;;3.40;1.88;;;6.20;99.90;;;;;;6281289;22;20007;-91
2022/03/16 19:10:06;;;;;;;4.07;1.70;;;6.10;99.90;;;;;;6281761;22;20003;-90
2022/03/16 19:15:16;;;;;;;10.23;2.80;;;6.10;99.90;;;;;;6307834;22;20064;-90
2022/03/16 19:17:43;;;;;;;7.65;2.42;;;6.00;99.90;;;;;;6281135;22;20014;-90
2022/03/16 19:20:16;;;;;;;5.70;3.10;;;6.00;99.90;;;;;;6282277;22;20038;-90
2022/03/16 19:22:46;;;;;;;8.85;3.80;;;6.00;99.90;;;;;;6283570;22;20015;-90
2022/03/16 19:25:13;;;;;;;9.60;4.78;;;5.90;99.90;;;;;;6284001;22;19999;-90
2022/03/16 19:27:39;;;;;;;6.75;3.30;;;6.00;99.90;;;;;;6283110;22;20007;-90
2022/03/16 19:30:06;;;;;;;7.10;4.20;;;5.90;99.90;;;;;;6286146;22;19999;-89
2022/03/16 19:32:32;;;;;;;7.32;4.72;;;5.90;99.90;;;;;;6289304;22;20003;-90
2022/03/16 19:35:01;;;;;;;2.85;2.47;;;5.90;99.90;;;;;;6293082;22;20082;-90
2022/03/16 19:37:27;;;;;;;8.85;2.90;;;5.90;99.90;;;;;;6294469;22;20087;-90
2022/03/16 19:39:54;;;;;;;7.65;2.75;;;5.90;99.90;;;;;;6295657;22;20034;-90
2022/03/16 19:42:20;;;;;;;7.50;3.78;;;5.80;99.90;;;;;;6291833;22;20019;-90
2022/03/16 19:44:46;;;;;;;8.80;3.33;;;5.80;99.90;;;;;;6286206;22;20003;-90
2022/03/16 19:47:13;;;;;;;6.00;4.10;;;5.80;99.90;;;;;;6282485;22;20007;-91
2022/03/16 19:49:39;;;;;;;6.70;4.55;;;5.80;99.90;;;;;;6282923;22;19999;-90
2022/03/16 19:52:05;;;;;;;7.57;4.07;;;5.80;99.90;;;;;;6282258;22;20003;-90
2022/03/16 19:54:32;;;;;;;10.45;4.70;;;5.80;99.90;;;;;;6281732;22;20063;-90
2022/03/16 19:56:58;;;;;;;8.70;5.50;;;5.80;99.90;;;;;;6281786;22;20015;-90
2022/03/16 19:59:24;;;;;;;11.32;5.47;;;5.90;99.90;;;;;;6280902;22;20387;-90
2022/03/16 20:01:51;;;;;;;10.95;5.57;;;5.90;99.90;;;;;;6280449;22;20039;-90
2022/03/16 20:04:23;;;;;;;9.57;6.28;;;5.90;99.90;;;;;;6280100;22;20003;-90
2022/03/16 20:06:51;;;;;;;13.77;6.55;;;5.90;99.90;;;;;;6280796;22;20507;-91
2022/03/16 20:09:17;;;;;;;8.50;6.45;;;5.90;99.90;;;;;;6281149;22;20085;-90
2022/03/16 20:11:42;;;;;;;11.50;6.10;;;5.90;99.90;;;;;;6281099;22;20405;-90
2022/03/16 20:14:08;;;;;;;11.73;6.38;;;5.90;99.90;;;;;;6280454;22;20030;-89
2022/03/16 20:16:35;;;;;;;13.45;6.88;;;5.90;99.90;;;;;;6281166;22;20098;-91
2022/03/16 20:19:05;;;;;;;15.75;7.18;;;5.90;99.90;;;;;;6280504;22;20018;-90
2022/03/16 20:21:33;;;;;;;8.60;5.85;;;5.90;99.90;;;;;;6280445;22;20039;-91
2022/03/16 20:23:59;;;;;;;10.48;6.68;;;5.90;99.90;;;;;;6280095;22;20007;-90
2022/03/16 20:26:25;;;;;;;8.40;5.75;;;6.00;99.90;;;;;;6279219;22;20090;-90
2022/03/16 20:28:52;;;;;;;10.57;6.97;;;6.00;99.90;;;;;;6280245;22;20007;-89
2022/03/16 20:31:18;;;;;;;7.75;5.75;;;6.00;99.90;;;;;;6280156;22;20007;-93
2022/03/16 20:33:45;;;;;;;8.05;5.85;;;6.00;99.90;;;;;;6279992;22;20017;-93
2022/03/16 20:36:16;;;;;;;7.25;5.50;;;6.00;99.90;;;;;;6280447;22;20023;-95
2022/03/16 20:38:45;;;;;;;10.15;5.90;;;6.00;99.90;;;;;;6280750;22;20156;-93
2022/03/16 20:41:12;;;;;;;10.45;5.32;;;6.00;99.90;;;;;;6279969;22;19999;-91
2022/03/16 20:43:38;;;;;;;8.75;5.80;;;6.00;99.90;;;;;;6278502;22;20054;-90
2022/03/16 20:46:04;;;;;;;9.57;5.38;;;6.00;99.90;;;;;;6279924;22;20003;-90
2022/03/16 20:48:31;;;;;;;11.68;5.70;;;6.00;99.90;;;;;;6278735;22;20007;-90
2022/03/16 20:50:58;;;;;;;6.90;5.38;;;6.10;99.90;;;;;;6307317;22;20003;-89
2022/03/16 20:53:28;;;;;;;9.20;5.60;;;6.10;99.90;;;;;;6281425;22;20031;-90
2022/03/16 20:55:54;;;;;;;9.65;6.35;;;6.10;99.90;;;;;;6306606;22;20003;-89
2022/03/16 21:01:14;;;;;;;9.27;6.50;;;6.00;99.90;;;;;;6273527;22;20414;-89
2022/03/16 21:03:42;;;;;;;12.18;7.72;;;6.10;99.90;;;;;;6280180;22;20043;-90
2022/03/16 21:06:10;;;;;;;8.70;5.28;;;6.10;99.90;;;;;;6280932;22;20089;-90
2022/03/16 21:08:36;;;;;;;6.38;4.43;;;6.00;99.90;;;;;;6280772;22;20038;-90
2022/03/16 21:11:02;;;;;;;10.63;4.38;;;6.00;99.90;;;;;;6281371;22;19996;-89
2022/03/16 21:13:27;;;;;;;4.07;3.17;;;6.00;99.90;;;;;;6281725;22;20030;-89
2022/03/16 21:15:57;;;;;;;6.68;3.75;;;6.00;99.90;;;;;;6282470;22;20042;-89
2022/03/16 21:18:23;;;;;;;7.00;2.75;;;5.90;99.90;;;;;;6288083;22;20011;-90
2022/03/16 21:20:49;;;;;;;3.95;3.10;;;5.90;99.90;;;;;;6280897;22;20284;-89
2022/03/16 21:23:16;;;;;;;4.63;2.50;;;5.80;99.90;;;;;;6280144;22;20042;-88
2022/03/16 21:25:42;;;;;;;5.53;2.50;;;5.80;99.90;;;;;;6280081;22;20100;-89
2022/03/16 21:28:10;;;;;;;3.53;1.88;;;5.80;99.90;;;;;;6281793;22;20028;-88
2022/03/16 21:30:38;;;;;;;4.40;1.75;;;5.80;99.90;;;;;;6282181;22;20426;-90
2022/03/16 21:33:06;;;;;;;4.07;2.40;;;5.70;99.90;;;;;;6287437;22;20010;-89
2022/03/16 21:35:32;;;;;;;3.33;2.22;;;5.70;99.90;;;;;;6295870;22;20007;-90
2022/03/16 21:37:58;;;;;;;4.38;2.03;;;5.70;99.90;;;;;;6292208;22;19999;-89
2022/03/16 21:43:11;;;;;;;3.53;1.98;;;5.70;99.90;;;;;;6327389;22;20045;-88
2022/03/16 21:45:41;;;;;;;3.03;2.20;;;5.70;99.90;;;;;;6290952;22;20000;-88
2022/03/16 21:48:10;;;;;;;4.20;1.95;;;5.70;99.90;;;;;;6287360;22;20011;-89
2022/03/16 21:51:39;;;;;;;3.22;2.58;;;5.70;99.90;;;;;;6283040;22;20000;-91
2022/03/16 21:53:36;;;;;;;6.80;2.85;;;5.70;99.90;;;;;;6309489;22;20007;-91
2022/03/16 21:56:02;;;;;;;4.00;2.65;;;5.70;99.90;;;;;;6259311;22;20094;-90
2022/03/16 21:58:28;;;;;;;6.80;2.97;;;5.70;99.90;;;;;;6283311;22;20010;-89
2022/03/16 22:00:59;;;;;;;7.70;3.30;;;5.70;99.90;;;;;;6284018;22;20007;-89
2022/03/16 22:03:25;;;;;;;4.93;3.13;;;5.70;99.90;;;;;;6284790;22;20094;-89
2022/03/16 22:05:54;;;;;;;7.45;2.88;;;5.70;99.90;;;;;;6282798;22;19999;-88
2022/03/16 22:08:22;;;;;;;6.10;3.90;;;5.60;99.90;;;;;;6282985;22;20450;-89
2022/03/16 22:10:48;;;;;;;6.28;3.00;;;5.60;99.90;;;;;;6282666;22;20007;-89
2022/03/16 22:13:17;;;;;;;7.30;3.65;;;5.60;99.90;;;;;;6281977;22;20068;-89
2022/03/16 22:15:43;;;;;;;4.43;3.08;;;5.50;99.90;;;;;;6283362;22;20521;-91
2022/03/16 22:18:10;;;;;;;7.03;3.15;;;5.50;99.90;;;;;;6283768;22;20004;-90
2022/03/16 22:23:21;;;;;;;4.68;2.72;;;5.40;99.90;;;;;;6310146;22;20026;-89
2022/03/16 22:25:48;;;;;;;5.55;2.63;;;5.30;99.90;;;;;;6282425;22;20098;-90
2022/03/16 22:28:14;;;;;;;4.78;2.45;;;5.30;99.90;;;;;;6282042;22;20010;-89
2022/03/16 22:30:41;;;;;;;8.13;2.50;;;5.30;99.90;;;;;;6281502;22;20000;-89
2022/03/16 22:33:06;;;;;;;5.93;2.50;;;5.20;99.90;;;;;;6282444;22;20059;-89
2022/03/16 22:35:32;;;;;;;6.45;3.33;;;5.20;99.90;;;;;;6282392;22;20342;-88
2022/03/16 22:37:58;;;;;;;7.82;3.20;;;5.20;99.90;;;;;;6282667;22;20500;-89
2022/03/16 22:40:25;;;;;;;8.07;2.40;;;5.10;99.90;;;;;;6284085;22;20004;-90
2022/03/16 22:42:51;;;;;;;8.68;2.40;;;5.10;99.90;;;;;;6290842;22;20084;-89